sensor_id;sensor_type;location;lat;lon;timestamp;P1;durP1;ratioP1;P2;durP2;ratioP2
72201;SDS011;60105;54.956;73.412;2023-01-19T00:01:38;6.80;;;4.53;;
72201;SDS011;60105;54.956;73.412;2023-01-19T00:04:05;9.88;;;5.03;;
72201;SDS011;60105;54.956;73.412;2023-01-19T00:06:31;8.02;;;4.43;;
72201;SDS011;60105;54.956;73.412;2023-01-19T00:09:00;6.82;;;4.35;;
72201;SDS011;60105;54.956;73.412;2023-01-19T00:11:38;8.82;;;4.25;;
72201;SDS011;60105;54.956;73.412;2023-01-19T00:14:04;9.27;;;4.53;;
72201;SDS011;60105;54.956;73.412;2023-01-19T00:16:31;6.80;;;4.80;;
72201;SDS011;60105;54.956;73.412;2023-01-19T00:19:02;6.90;;;4.57;;
72201;SDS011;60105;54.956;73.412;2023-01-19T00:21:31;8.35;;;5.60;;
72201;SDS011;60105;54.956;73.412;2023-01-19T00:23:57;7.13;;;4.60;;
72201;SDS011;60105;54.956;73.412;2023-01-19T00:26:28;7.67;;;4.17;;
72201;SDS011;60105;54.956;73.412;2023-01-19T00:28:58;6.20;;;3.85;;
72201;SDS011;60105;54.956;73.412;2023-01-19T00:31:24;11.32;;;5.40;;
72201;SDS011;60105;54.956;73.412;2023-01-19T00:33:51;9.40;;;4.75;;
72201;SDS011;60105;54.956;73.412;2023-01-19T00:36:27;7.22;;;5.00;;
72201;SDS011;60105;54.956;73.412;2023-01-19T00:38:59;6.33;;;4.73;;
72201;SDS011;60105;54.956;73.412;2023-01-19T00:41:25;10.50;;;4.78;;
72201;SDS011;60105;54.956;73.412;2023-01-19T00:44:10;8.18;;;5.05;;
72201;SDS011;60105;54.956;73.412;2023-01-19T00:46:37;7.40;;;4.60;;
72201;SDS011;60105;54.956;73.412;2023-01-19T00:49:04;5.68;;;4.38;;
72201;SDS011;60105;54.956;73.412;2023-01-19T00:51:30;6.53;;;4.27;;
72201;SDS011;60105;54.956;73.412;2023-01-19T00:53:57;11.90;;;5.45;;
72201;SDS011;60105;54.956;73.412;2023-01-19T00:56:30;7.55;;;4.35;;
72201;SDS011;60105;54.956;73.412;2023-01-19T00:58:56;9.57;;;4.88;;
72201;SDS011;60105;54.956;73.412;2023-01-19T01:01:23;6.85;;;5.38;;
72201;SDS011;60105;54.956;73.412;2023-01-19T01:03:57;5.87;;;5.27;;
72201;SDS011;60105;54.956;73.412;2023-01-19T01:06:24;8.07;;;4.72;;
72201;SDS011;60105;54.956;73.412;2023-01-19T01:08:50;6.03;;;4.88;;
72201;SDS011;60105;54.956;73.412;2023-01-19T01:11:22;8.10;;;4.97;;
72201;SDS011;60105;54.956;73.412;2023-01-19T01:13:53;6.55;;;4.28;;
72201;SDS011;60105;54.956;73.412;2023-01-19T01:16:20;7.33;;;4.80;;
72201;SDS011;60105;54.956;73.412;2023-01-19T01:18:47;7.03;;;4.90;;
72201;SDS011;60105;54.956;73.412;2023-01-19T01:21:13;7.40;;;4.53;;
72201;SDS011;60105;54.956;73.412;2023-01-19T01:23:45;9.05;;;4.45;;
72201;SDS011;60105;54.956;73.412;2023-01-19T01:26:11;6.47;;;4.45;;
72201;SDS011;60105;54.956;73.412;2023-01-19T01:28:37;5.37;;;4.10;;
72201;SDS011;60105;54.956;73.412;2023-01-19T01:31:13;9.02;;;4.10;;
72201;SDS011;60105;54.956;73.412;2023-01-19T01:33:39;7.93;;;5.10;;
72201;SDS011;60105;54.956;73.412;2023-01-19T01:36:06;8.05;;;3.88;;
72201;SDS011;60105;54.956;73.412;2023-01-19T01:38:32;9.43;;;5.00;;
72201;SDS011;60105;54.956;73.412;2023-01-19T01:40:59;7.87;;;4.90;;
72201;SDS011;60105;54.956;73.412;2023-01-19T01:43:45;5.93;;;3.92;;
72201;SDS011;60105;54.956;73.412;2023-01-19T01:46:23;6.65;;;5.35;;
72201;SDS011;60105;54.956;73.412;2023-01-19T01:48:53;7.60;;;4.68;;
72201;SDS011;60105;54.956;73.412;2023-01-19T01:51:29;5.60;;;4.50;;
72201;SDS011;60105;54.956;73.412;2023-01-19T01:56:38;9.00;;;4.30;;
72201;SDS011;60105;54.956;73.412;2023-01-19T01:59:10;11.40;;;5.57;;
72201;SDS011;60105;54.956;73.412;2023-01-19T02:01:51;8.77;;;4.78;;
72201;SDS011;60105;54.956;73.412;2023-01-19T02:04:38;8.85;;;5.38;;
72201;SDS011;60105;54.956;73.412;2023-01-19T02:07:23;7.67;;;4.50;;
72201;SDS011;60105;54.956;73.412;2023-01-19T02:10:23;5.22;;;3.92;;
72201;SDS011;60105;54.956;73.412;2023-01-19T02:13:12;9.05;;;5.10;;
72201;SDS011;60105;54.956;73.412;2023-01-19T02:15:43;14.77;;;5.57;;
72201;SDS011;60105;54.956;73.412;2023-01-19T02:18:12;8.70;;;5.67;;
72201;SDS011;60105;54.956;73.412;2023-01-19T02:20:39;10.13;;;5.40;;
72201;SDS011;60105;54.956;73.412;2023-01-19T02:23:17;8.48;;;4.78;;
72201;SDS011;60105;54.956;73.412;2023-01-19T02:25:56;11.32;;;5.38;;
72201;SDS011;60105;54.956;73.412;2023-01-19T02:28:23;6.72;;;4.20;;
72201;SDS011;60105;54.956;73.412;2023-01-19T02:30:50;10.77;;;5.77;;
72201;SDS011;60105;54.956;73.412;2023-01-19T02:33:17;8.10;;;6.05;;
72201;SDS011;60105;54.956;73.412;2023-01-19T02:35:43;10.35;;;5.85;;
72201;SDS011;60105;54.956;73.412;2023-01-19T02:38:10;11.18;;;5.90;;
72201;SDS011;60105;54.956;73.412;2023-01-19T02:40:39;12.88;;;4.75;;
72201;SDS011;60105;54.956;73.412;2023-01-19T02:43:15;8.60;;;5.03;;
72201;SDS011;60105;54.956;73.412;2023-01-19T02:45:44;6.82;;;4.35;;
72201;SDS011;60105;54.956;73.412;2023-01-19T02:48:11;9.35;;;4.95;;
72201;SDS011;60105;54.956;73.412;2023-01-19T02:50:54;10.68;;;5.82;;
72201;SDS011;60105;54.956;73.412;2023-01-19T02:53:32;9.77;;;5.35;;
72201;SDS011;60105;54.956;73.412;2023-01-19T02:59:00;9.63;;;5.70;;
72201;SDS011;60105;54.956;73.412;2023-01-19T03:10:19;12.73;;;5.43;;
72201;SDS011;60105;54.956;73.412;2023-01-19T03:12:56;11.68;;;6.82;;
72201;SDS011;60105;54.956;73.412;2023-01-19T03:15:38;8.10;;;5.68;;
72201;SDS011;60105;54.956;73.412;2023-01-19T03:18:13;8.63;;;6.03;;
72201;SDS011;60105;54.956;73.412;2023-01-19T03:20:44;8.47;;;6.50;;
72201;SDS011;60105;54.956;73.412;2023-01-19T03:23:13;12.15;;;6.13;;
72201;SDS011;60105;54.956;73.412;2023-01-19T03:25:45;10.63;;;6.05;;
72201;SDS011;60105;54.956;73.412;2023-01-19T03:28:19;11.23;;;6.22;;
72201;SDS011;60105;54.956;73.412;2023-01-19T03:30:59;10.48;;;5.78;;
72201;SDS011;60105;54.956;73.412;2023-01-19T03:33:31;10.00;;;6.13;;
72201;SDS011;60105;54.956;73.412;2023-01-19T03:36:03;18.23;;;9.10;;
72201;SDS011;60105;54.956;73.412;2023-01-19T03:38:37;19.63;;;8.77;;
72201;SDS011;60105;54.956;73.412;2023-01-19T03:41:10;15.25;;;7.90;;
72201;SDS011;60105;54.956;73.412;2023-01-19T03:43:41;13.82;;;8.02;;
72201;SDS011;60105;54.956;73.412;2023-01-19T03:46:09;10.13;;;6.63;;
72201;SDS011;60105;54.956;73.412;2023-01-19T03:48:37;11.05;;;7.00;;
72201;SDS011;60105;54.956;73.412;2023-01-19T03:51:04;13.75;;;5.72;;
72201;SDS011;60105;54.956;73.412;2023-01-19T03:53:33;9.02;;;6.75;;
72201;SDS011;60105;54.956;73.412;2023-01-19T03:55:59;9.20;;;6.40;;
72201;SDS011;60105;54.956;73.412;2023-01-19T03:58:26;12.03;;;7.17;;
72201;SDS011;60105;54.956;73.412;2023-01-19T04:00:52;12.68;;;7.97;;
72201;SDS011;60105;54.956;73.412;2023-01-19T04:03:26;20.35;;;7.78;;
72201;SDS011;60105;54.956;73.412;2023-01-19T04:05:55;17.33;;;9.13;;
72201;SDS011;60105;54.956;73.412;2023-01-19T04:08:21;18.83;;;11.20;;
72201;SDS011;60105;54.956;73.412;2023-01-19T04:10:47;25.20;;;13.90;;
72201;SDS011;60105;54.956;73.412;2023-01-19T04:13:13;23.98;;;13.30;;
72201;SDS011;60105;54.956;73.412;2023-01-19T04:15:40;24.77;;;12.10;;
72201;SDS011;60105;54.956;73.412;2023-01-19T04:18:07;31.67;;;14.65;;
72201;SDS011;60105;54.956;73.412;2023-01-19T04:20:43;39.42;;;15.07;;
72201;SDS011;60105;54.956;73.412;2023-01-19T04:23:19;37.43;;;18.93;;
72201;SDS011;60105;54.956;73.412;2023-01-19T04:25:46;37.50;;;19.80;;
72201;SDS011;60105;54.956;73.412;2023-01-19T04:28:17;55.70;;;23.75;;
72201;SDS011;60105;54.956;73.412;2023-01-19T04:30:43;34.45;;;20.60;;
72201;SDS011;60105;54.956;73.412;2023-01-19T04:33:09;39.92;;;18.75;;
72201;SDS011;60105;54.956;73.412;2023-01-19T04:35:40;38.47;;;18.40;;
72201;SDS011;60105;54.956;73.412;2023-01-19T04:38:11;41.75;;;18.95;;
72201;SDS011;60105;54.956;73.412;2023-01-19T04:40:38;36.95;;;18.10;;
72201;SDS011;60105;54.956;73.412;2023-01-19T04:43:04;33.92;;;15.95;;
72201;SDS011;60105;54.956;73.412;2023-01-19T04:45:30;34.85;;;15.50;;
72201;SDS011;60105;54.956;73.412;2023-01-19T04:47:56;27.00;;;12.40;;
72201;SDS011;60105;54.956;73.412;2023-01-19T04:50:23;29.20;;;13.23;;
72201;SDS011;60105;54.956;73.412;2023-01-19T04:52:49;31.65;;;13.68;;
72201;SDS011;60105;54.956;73.412;2023-01-19T04:55:15;32.35;;;13.75;;
72201;SDS011;60105;54.956;73.412;2023-01-19T04:57:42;25.95;;;12.18;;
72201;SDS011;60105;54.956;73.412;2023-01-19T05:00:09;29.80;;;12.60;;
72201;SDS011;60105;54.956;73.412;2023-01-19T05:02:35;27.00;;;11.38;;
72201;SDS011;60105;54.956;73.412;2023-01-19T05:05:02;21.55;;;10.75;;
72201;SDS011;60105;54.956;73.412;2023-01-19T05:07:34;21.95;;;9.27;;
72201;SDS011;60105;54.956;73.412;2023-01-19T05:10:01;23.58;;;10.48;;
72201;SDS011;60105;54.956;73.412;2023-01-19T05:12:29;16.23;;;8.53;;
72201;SDS011;60105;54.956;73.412;2023-01-19T05:14:55;16.92;;;8.00;;
72201;SDS011;60105;54.956;73.412;2023-01-19T05:17:21;12.45;;;7.82;;
72201;SDS011;60105;54.956;73.412;2023-01-19T05:19:48;17.13;;;8.18;;
72201;SDS011;60105;54.956;73.412;2023-01-19T05:22:14;18.95;;;8.70;;
72201;SDS011;60105;54.956;73.412;2023-01-19T05:24:41;21.43;;;8.63;;
72201;SDS011;60105;54.956;73.412;2023-01-19T05:27:07;15.95;;;7.30;;
72201;SDS011;60105;54.956;73.412;2023-01-19T05:29:34;13.75;;;6.20;;
72201;SDS011;60105;54.956;73.412;2023-01-19T05:32:00;13.57;;;7.45;;
72201;SDS011;60105;54.956;73.412;2023-01-19T05:34:26;15.27;;;7.22;;
72201;SDS011;60105;54.956;73.412;2023-01-19T05:36:53;15.77;;;7.33;;
72201;SDS011;60105;54.956;73.412;2023-01-19T05:39:19;14.25;;;7.45;;
72201;SDS011;60105;54.956;73.412;2023-01-19T05:41:45;12.27;;;7.40;;
72201;SDS011;60105;54.956;73.412;2023-01-19T05:44:12;15.13;;;6.60;;
72201;SDS011;60105;54.956;73.412;2023-01-19T05:46:44;19.55;;;6.85;;
72201;SDS011;60105;54.956;73.412;2023-01-19T05:49:11;10.33;;;6.63;;
72201;SDS011;60105;54.956;73.412;2023-01-19T05:51:37;15.00;;;6.85;;
72201;SDS011;60105;54.956;73.412;2023-01-19T05:54:15;11.57;;;6.35;;
72201;SDS011;60105;54.956;73.412;2023-01-19T05:56:46;18.67;;;6.00;;
72201;SDS011;60105;54.956;73.412;2023-01-19T05:59:13;15.73;;;6.05;;
72201;SDS011;60105;54.956;73.412;2023-01-19T06:01:50;17.10;;;7.40;;
72201;SDS011;60105;54.956;73.412;2023-01-19T06:04:17;10.18;;;6.95;;
72201;SDS011;60105;54.956;73.412;2023-01-19T06:06:48;17.85;;;7.55;;
72201;SDS011;60105;54.956;73.412;2023-01-19T06:09:15;12.68;;;6.60;;
72201;SDS011;60105;54.956;73.412;2023-01-19T06:11:42;14.75;;;6.20;;
72201;SDS011;60105;54.956;73.412;2023-01-19T06:14:14;12.77;;;7.00;;
72201;SDS011;60105;54.956;73.412;2023-01-19T06:16:40;17.73;;;6.63;;
72201;SDS011;60105;54.956;73.412;2023-01-19T06:19:12;12.98;;;6.25;;
72201;SDS011;60105;54.956;73.412;2023-01-19T06:21:47;7.10;;;4.78;;
72201;SDS011;60105;54.956;73.412;2023-01-19T06:24:16;8.73;;;5.88;;
72201;SDS011;60105;54.956;73.412;2023-01-19T06:26:43;14.80;;;6.83;;
72201;SDS011;60105;54.956;73.412;2023-01-19T06:29:10;9.80;;;4.82;;
72201;SDS011;60105;54.956;73.412;2023-01-19T06:31:36;9.23;;;5.75;;
72201;SDS011;60105;54.956;73.412;2023-01-19T06:34:03;9.00;;;6.25;;
72201;SDS011;60105;54.956;73.412;2023-01-19T06:36:34;11.85;;;5.88;;
72201;SDS011;60105;54.956;73.412;2023-01-19T06:39:01;15.63;;;5.63;;
72201;SDS011;60105;54.956;73.412;2023-01-19T06:41:33;11.35;;;6.88;;
72201;SDS011;60105;54.956;73.412;2023-01-19T06:44:00;12.52;;;6.13;;
72201;SDS011;60105;54.956;73.412;2023-01-19T06:46:27;9.10;;;5.70;;
72201;SDS011;60105;54.956;73.412;2023-01-19T06:48:54;10.60;;;6.38;;
72201;SDS011;60105;54.956;73.412;2023-01-19T06:51:20;11.97;;;6.17;;
72201;SDS011;60105;54.956;73.412;2023-01-19T06:53:47;12.68;;;6.78;;
72201;SDS011;60105;54.956;73.412;2023-01-19T06:56:14;10.73;;;7.30;;
72201;SDS011;60105;54.956;73.412;2023-01-19T06:58:40;11.63;;;6.00;;
72201;SDS011;60105;54.956;73.412;2023-01-19T07:01:07;14.48;;;6.38;;
72201;SDS011;60105;54.956;73.412;2023-01-19T07:03:34;11.53;;;6.33;;
72201;SDS011;60105;54.956;73.412;2023-01-19T07:06:12;17.70;;;6.00;;
72201;SDS011;60105;54.956;73.412;2023-01-19T07:08:39;15.55;;;7.15;;
72201;SDS011;60105;54.956;73.412;2023-01-19T07:11:06;10.30;;;6.72;;
72201;SDS011;60105;54.956;73.412;2023-01-19T07:13:36;13.20;;;7.00;;
72201;SDS011;60105;54.956;73.412;2023-01-19T07:16:04;10.67;;;6.23;;
72201;SDS011;60105;54.956;73.412;2023-01-19T07:18:35;12.93;;;7.35;;
72201;SDS011;60105;54.956;73.412;2023-01-19T07:21:03;10.38;;;5.72;;
72201;SDS011;60105;54.956;73.412;2023-01-19T07:23:29;24.30;;;8.75;;
72201;SDS011;60105;54.956;73.412;2023-01-19T07:26:06;16.40;;;8.00;;
72201;SDS011;60105;54.956;73.412;2023-01-19T07:28:32;16.03;;;8.13;;
72201;SDS011;60105;54.956;73.412;2023-01-19T07:31:08;15.60;;;8.02;;
72201;SDS011;60105;54.956;73.412;2023-01-19T07:33:35;16.63;;;8.48;;
72201;SDS011;60105;54.956;73.412;2023-01-19T07:36:06;18.15;;;8.40;;
72201;SDS011;60105;54.956;73.412;2023-01-19T07:38:33;12.02;;;7.35;;
72201;SDS011;60105;54.956;73.412;2023-01-19T07:41:00;13.43;;;7.43;;
72201;SDS011;60105;54.956;73.412;2023-01-19T07:43:27;13.23;;;8.70;;
72201;SDS011;60105;54.956;73.412;2023-01-19T07:45:57;12.88;;;6.82;;
72201;SDS011;60105;54.956;73.412;2023-01-19T07:48:25;9.07;;;5.57;;
72201;SDS011;60105;54.956;73.412;2023-01-19T07:50:51;9.20;;;6.32;;
72201;SDS011;60105;54.956;73.412;2023-01-19T07:53:18;10.87;;;6.33;;
72201;SDS011;60105;54.956;73.412;2023-01-19T07:55:45;8.88;;;6.50;;
72201;SDS011;60105;54.956;73.412;2023-01-19T07:58:11;13.90;;;7.53;;
72201;SDS011;60105;54.956;73.412;2023-01-19T08:00:47;11.80;;;6.25;;
72201;SDS011;60105;54.956;73.412;2023-01-19T08:03:15;8.63;;;6.35;;
72201;SDS011;60105;54.956;73.412;2023-01-19T08:05:42;10.77;;;6.80;;
72201;SDS011;60105;54.956;73.412;2023-01-19T08:08:14;15.38;;;6.43;;
72201;SDS011;60105;54.956;73.412;2023-01-19T08:10:41;13.93;;;6.60;;
72201;SDS011;60105;54.956;73.412;2023-01-19T08:13:07;9.93;;;6.25;;
72201;SDS011;60105;54.956;73.412;2023-01-19T08:15:33;11.40;;;7.15;;
72201;SDS011;60105;54.956;73.412;2023-01-19T08:21:21;14.25;;;8.88;;
72201;SDS011;60105;54.956;73.412;2023-01-19T08:23:51;17.30;;;8.43;;
72201;SDS011;60105;54.956;73.412;2023-01-19T08:28:45;17.92;;;8.13;;
72201;SDS011;60105;54.956;73.412;2023-01-19T08:31:17;10.87;;;6.97;;
72201;SDS011;60105;54.956;73.412;2023-01-19T08:33:43;18.85;;;8.77;;
72201;SDS011;60105;54.956;73.412;2023-01-19T08:36:10;19.00;;;9.00;;
72201;SDS011;60105;54.956;73.412;2023-01-19T08:38:36;13.90;;;7.78;;
72201;SDS011;60105;54.956;73.412;2023-01-19T08:41:05;12.60;;;7.05;;
72201;SDS011;60105;54.956;73.412;2023-01-19T08:43:31;18.30;;;7.17;;
72201;SDS011;60105;54.956;73.412;2023-01-19T08:45:57;16.27;;;7.20;;
72201;SDS011;60105;54.956;73.412;2023-01-19T08:48:24;16.83;;;8.30;;
72201;SDS011;60105;54.956;73.412;2023-01-19T08:50:50;18.42;;;8.40;;
72201;SDS011;60105;54.956;73.412;2023-01-19T08:53:28;20.58;;;9.43;;
72201;SDS011;60105;54.956;73.412;2023-01-19T08:55:55;19.80;;;9.77;;
72201;SDS011;60105;54.956;73.412;2023-01-19T08:58:22;29.52;;;11.77;;
72201;SDS011;60105;54.956;73.412;2023-01-19T09:00:48;25.08;;;13.30;;
72201;SDS011;60105;54.956;73.412;2023-01-19T09:03:17;34.30;;;12.95;;
72201;SDS011;60105;54.956;73.412;2023-01-19T09:05:44;34.60;;;13.50;;
72201;SDS011;60105;54.956;73.412;2023-01-19T09:08:11;33.47;;;14.27;;
72201;SDS011;60105;54.956;73.412;2023-01-19T09:10:49;27.08;;;12.75;;
72201;SDS011;60105;54.956;73.412;2023-01-19T09:13:16;28.55;;;11.13;;
72201;SDS011;60105;54.956;73.412;2023-01-19T09:15:43;20.00;;;8.75;;
72201;SDS011;60105;54.956;73.412;2023-01-19T09:18:13;19.85;;;9.25;;
72201;SDS011;60105;54.956;73.412;2023-01-19T09:20:55;22.50;;;9.27;;
72201;SDS011;60105;54.956;73.412;2023-01-19T09:23:26;24.58;;;9.73;;
72201;SDS011;60105;54.956;73.412;2023-01-19T09:25:57;24.70;;;10.35;;
72201;SDS011;60105;54.956;73.412;2023-01-19T09:28:27;21.10;;;9.40;;
72201;SDS011;60105;54.956;73.412;2023-01-19T09:30:54;22.73;;;10.23;;
72201;SDS011;60105;54.956;73.412;2023-01-19T09:33:25;16.97;;;8.40;;
72201;SDS011;60105;54.956;73.412;2023-01-19T09:35:52;18.95;;;9.23;;
72201;SDS011;60105;54.956;73.412;2023-01-19T09:38:18;20.23;;;10.13;;
72201;SDS011;60105;54.956;73.412;2023-01-19T09:40:54;19.95;;;9.98;;
72201;SDS011;60105;54.956;73.412;2023-01-19T09:46:14;20.00;;;8.97;;
72201;SDS011;60105;54.956;73.412;2023-01-19T09:48:46;19.13;;;9.27;;
72201;SDS011;60105;54.956;73.412;2023-01-19T09:51:20;18.80;;;9.25;;
72201;SDS011;60105;54.956;73.412;2023-01-19T09:54:06;16.95;;;9.85;;
72201;SDS011;60105;54.956;73.412;2023-01-19T09:56:41;14.23;;;8.50;;
72201;SDS011;60105;54.956;73.412;2023-01-19T10:20:50;15.93;;;6.93;;
72201;SDS011;60105;54.956;73.412;2023-01-19T10:23:28;17.70;;;7.20;;
72201;SDS011;60105;54.956;73.412;2023-01-19T10:26:15;14.40;;;7.00;;
72201;SDS011;60105;54.956;73.412;2023-01-19T10:28:48;11.68;;;7.15;;
72201;SDS011;60105;54.956;73.412;2023-01-19T10:31:19;21.23;;;6.50;;
72201;SDS011;60105;54.956;73.412;2023-01-19T10:33:53;6.72;;;5.72;;
72201;SDS011;60105;54.956;73.412;2023-01-19T10:36:30;10.05;;;6.30;;
72201;SDS011;60105;54.956;73.412;2023-01-19T10:39:03;12.27;;;7.37;;
72201;SDS011;60105;54.956;73.412;2023-01-19T10:41:40;11.85;;;5.38;;
72201;SDS011;60105;54.956;73.412;2023-01-19T10:44:22;9.57;;;5.88;;
72201;SDS011;60105;54.956;73.412;2023-01-19T10:46:57;16.50;;;6.30;;
72201;SDS011;60105;54.956;73.412;2023-01-19T10:49:29;13.75;;;6.72;;
72201;SDS011;60105;54.956;73.412;2023-01-19T10:52:01;11.40;;;6.53;;
72201;SDS011;60105;54.956;73.412;2023-01-19T10:54:30;16.00;;;6.97;;
72201;SDS011;60105;54.956;73.412;2023-01-19T10:57:03;11.23;;;6.32;;
72201;SDS011;60105;54.956;73.412;2023-01-19T10:59:37;11.65;;;7.15;;
72201;SDS011;60105;54.956;73.412;2023-01-19T11:02:25;15.20;;;6.75;;
72201;SDS011;60105;54.956;73.412;2023-01-19T11:04:57;11.23;;;6.67;;
72201;SDS011;60105;54.956;73.412;2023-01-19T11:15:20;14.15;;;5.97;;
72201;SDS011;60105;54.956;73.412;2023-01-19T11:17:54;18.83;;;7.13;;
72201;SDS011;60105;54.956;73.412;2023-01-19T11:20:33;10.57;;;6.32;;
72201;SDS011;60105;54.956;73.412;2023-01-19T11:25:46;14.02;;;6.55;;
72201;SDS011;60105;54.956;73.412;2023-01-19T11:33:51;13.13;;;5.97;;
72201;SDS011;60105;54.956;73.412;2023-01-19T11:36:33;11.45;;;5.82;;
72201;SDS011;60105;54.956;73.412;2023-01-19T11:41:51;8.48;;;5.38;;
72201;SDS011;60105;54.956;73.412;2023-01-19T11:44:32;16.13;;;6.73;;
72201;SDS011;60105;54.956;73.412;2023-01-19T11:58:24;15.33;;;7.83;;
72201;SDS011;60105;54.956;73.412;2023-01-19T12:03:59;15.57;;;6.57;;
72201;SDS011;60105;54.956;73.412;2023-01-19T12:06:30;16.92;;;8.48;;
72201;SDS011;60105;54.956;73.412;2023-01-19T12:09:12;13.90;;;7.05;;
72201;SDS011;60105;54.956;73.412;2023-01-19T12:11:45;14.07;;;6.60;;
72201;SDS011;60105;54.956;73.412;2023-01-19T12:14:25;21.92;;;6.95;;
72201;SDS011;60105;54.956;73.412;2023-01-19T12:16:59;15.20;;;6.63;;
72201;SDS011;60105;54.956;73.412;2023-01-19T12:22:31;14.65;;;5.95;;
72201;SDS011;60105;54.956;73.412;2023-01-19T12:25:39;17.20;;;6.83;;
72201;SDS011;60105;54.956;73.412;2023-01-19T12:28:14;17.25;;;7.70;;
72201;SDS011;60105;54.956;73.412;2023-01-19T12:30:42;10.95;;;6.63;;
72201;SDS011;60105;54.956;73.412;2023-01-19T12:33:22;13.38;;;6.93;;
72201;SDS011;60105;54.956;73.412;2023-01-19T12:41:32;17.33;;;7.97;;
72201;SDS011;60105;54.956;73.412;2023-01-19T12:46:52;20.20;;;7.90;;
72201;SDS011;60105;54.956;73.412;2023-01-19T12:52:12;18.90;;;8.33;;
72201;SDS011;60105;54.956;73.412;2023-01-19T13:00:07;14.48;;;6.93;;
72201;SDS011;60105;54.956;73.412;2023-01-19T13:03:01;17.52;;;9.35;;
72201;SDS011;60105;54.956;73.412;2023-01-19T13:08:14;14.50;;;6.43;;
72201;SDS011;60105;54.956;73.412;2023-01-19T13:13:26;12.23;;;7.13;;
72201;SDS011;60105;54.956;73.412;2023-01-19T13:15:54;12.68;;;7.07;;
72201;SDS011;60105;54.956;73.412;2023-01-19T13:18:22;10.83;;;7.07;;
72201;SDS011;60105;54.956;73.412;2023-01-19T13:20:57;14.73;;;7.68;;
72201;SDS011;60105;54.956;73.412;2023-01-19T13:23:28;9.55;;;5.18;;
72201;SDS011;60105;54.956;73.412;2023-01-19T13:26:12;6.50;;;5.40;;
72201;SDS011;60105;54.956;73.412;2023-01-19T13:28:44;11.82;;;6.43;;
72201;SDS011;60105;54.956;73.412;2023-01-19T13:31:13;18.83;;;7.87;;
72201;SDS011;60105;54.956;73.412;2023-01-19T13:33:51;16.95;;;7.53;;
72201;SDS011;60105;54.956;73.412;2023-01-19T13:36:21;13.30;;;7.40;;
72201;SDS011;60105;54.956;73.412;2023-01-19T13:38:54;19.55;;;7.10;;
72201;SDS011;60105;54.956;73.412;2023-01-19T13:41:37;13.40;;;7.25;;
72201;SDS011;60105;54.956;73.412;2023-01-19T13:47:03;14.45;;;7.32;;
72201;SDS011;60105;54.956;73.412;2023-01-19T13:49:48;13.60;;;7.15;;
72201;SDS011;60105;54.956;73.412;2023-01-19T13:52:23;13.35;;;6.05;;
72201;SDS011;60105;54.956;73.412;2023-01-19T13:55:02;15.13;;;7.03;;
72201;SDS011;60105;54.956;73.412;2023-01-19T13:57:37;19.63;;;7.80;;
72201;SDS011;60105;54.956;73.412;2023-01-19T14:02:53;16.55;;;7.43;;
72201;SDS011;60105;54.956;73.412;2023-01-19T14:05:36;9.98;;;6.65;;
72201;SDS011;60105;54.956;73.412;2023-01-19T14:13:19;12.88;;;7.78;;
72201;SDS011;60105;54.956;73.412;2023-01-19T14:15:46;12.60;;;7.55;;
72201;SDS011;60105;54.956;73.412;2023-01-19T14:20:53;13.35;;;8.38;;
72201;SDS011;60105;54.956;73.412;2023-01-19T14:34:36;14.73;;;6.55;;
72201;SDS011;60105;54.956;73.412;2023-01-19T14:37:31;10.37;;;5.93;;
72201;SDS011;60105;54.956;73.412;2023-01-19T14:40:00;13.70;;;6.25;;
72201;SDS011;60105;54.956;73.412;2023-01-19T14:42:52;14.48;;;7.18;;
72201;SDS011;60105;54.956;73.412;2023-01-19T14:45:28;16.42;;;6.75;;
72201;SDS011;60105;54.956;73.412;2023-01-19T14:50:35;17.23;;;6.93;;
72201;SDS011;60105;54.956;73.412;2023-01-19T14:53:05;9.55;;;6.15;;
72201;SDS011;60105;54.956;73.412;2023-01-19T14:55:55;18.10;;;7.25;;
72201;SDS011;60105;54.956;73.412;2023-01-19T14:58:25;16.70;;;6.82;;
72201;SDS011;60105;54.956;73.412;2023-01-19T15:00:54;15.05;;;7.60;;
72201;SDS011;60105;54.956;73.412;2023-01-19T15:03:24;16.27;;;8.17;;
72201;SDS011;60105;54.956;73.412;2023-01-19T15:05:56;13.20;;;8.30;;
72201;SDS011;60105;54.956;73.412;2023-01-19T15:08:28;16.63;;;8.05;;
72201;SDS011;60105;54.956;73.412;2023-01-19T15:11:00;11.13;;;6.35;;
72201;SDS011;60105;54.956;73.412;2023-01-19T15:13:39;13.25;;;7.07;;
72201;SDS011;60105;54.956;73.412;2023-01-19T15:16:08;19.43;;;7.87;;
72201;SDS011;60105;54.956;73.412;2023-01-19T15:18:44;18.02;;;7.88;;
72201;SDS011;60105;54.956;73.412;2023-01-19T15:21:17;15.57;;;7.47;;
72201;SDS011;60105;54.956;73.412;2023-01-19T15:23:46;18.15;;;7.72;;
72201;SDS011;60105;54.956;73.412;2023-01-19T15:26:14;11.13;;;7.47;;
72201;SDS011;60105;54.956;73.412;2023-01-19T15:28:43;13.80;;;8.20;;
72201;SDS011;60105;54.956;73.412;2023-01-19T15:31:12;13.75;;;7.30;;
72201;SDS011;60105;54.956;73.412;2023-01-19T15:33:41;12.30;;;6.93;;
72201;SDS011;60105;54.956;73.412;2023-01-19T15:36:11;13.45;;;6.82;;
72201;SDS011;60105;54.956;73.412;2023-01-19T15:38:41;19.83;;;8.05;;
72201;SDS011;60105;54.956;73.412;2023-01-19T15:41:14;17.53;;;7.47;;
72201;SDS011;60105;54.956;73.412;2023-01-19T15:43:48;13.52;;;7.22;;
72201;SDS011;60105;54.956;73.412;2023-01-19T15:46:15;11.93;;;6.60;;
72201;SDS011;60105;54.956;73.412;2023-01-19T15:48:45;18.92;;;8.68;;
72201;SDS011;60105;54.956;73.412;2023-01-19T15:51:13;14.98;;;8.80;;
72201;SDS011;60105;54.956;73.412;2023-01-19T15:53:41;17.13;;;7.77;;
72201;SDS011;60105;54.956;73.412;2023-01-19T15:58:42;13.73;;;7.05;;
72201;SDS011;60105;54.956;73.412;2023-01-19T16:01:12;16.58;;;9.15;;
72201;SDS011;60105;54.956;73.412;2023-01-19T16:03:44;16.10;;;8.98;;
72201;SDS011;60105;54.956;73.412;2023-01-19T16:06:11;12.90;;;7.63;;
72201;SDS011;60105;54.956;73.412;2023-01-19T16:08:40;14.73;;;7.00;;
72201;SDS011;60105;54.956;73.412;2023-01-19T16:11:11;14.55;;;7.60;;
72201;SDS011;60105;54.956;73.412;2023-01-19T16:14:03;19.10;;;7.55;;
72201;SDS011;60105;54.956;73.412;2023-01-19T16:16:30;20.17;;;8.80;;
72201;SDS011;60105;54.956;73.412;2023-01-19T16:18:56;13.83;;;8.03;;
72201;SDS011;60105;54.956;73.412;2023-01-19T16:21:23;13.85;;;8.02;;
72201;SDS011;60105;54.956;73.412;2023-01-19T16:23:50;12.82;;;9.20;;
72201;SDS011;60105;54.956;73.412;2023-01-19T16:29:03;21.02;;;10.40;;
72201;SDS011;60105;54.956;73.412;2023-01-19T16:31:33;18.50;;;9.10;;
72201;SDS011;60105;54.956;73.412;2023-01-19T16:34:10;20.63;;;10.48;;
72201;SDS011;60105;54.956;73.412;2023-01-19T16:36:40;22.65;;;10.45;;
72201;SDS011;60105;54.956;73.412;2023-01-19T16:39:11;21.23;;;11.30;;
72201;SDS011;60105;54.956;73.412;2023-01-19T16:41:39;26.92;;;11.05;;
72201;SDS011;60105;54.956;73.412;2023-01-19T16:44:11;21.93;;;10.33;;
72201;SDS011;60105;54.956;73.412;2023-01-19T16:46:44;17.75;;;10.00;;
72201;SDS011;60105;54.956;73.412;2023-01-19T16:49:22;19.42;;;9.65;;
72201;SDS011;60105;54.956;73.412;2023-01-19T16:51:51;16.83;;;9.93;;
72201;SDS011;60105;54.956;73.412;2023-01-19T16:54:24;25.67;;;11.18;;
72201;SDS011;60105;54.956;73.412;2023-01-19T16:56:55;18.33;;;9.90;;
72201;SDS011;60105;54.956;73.412;2023-01-19T16:59:22;17.88;;;8.93;;
72201;SDS011;60105;54.956;73.412;2023-01-19T17:01:50;16.17;;;9.23;;